This is the latest recevied weather packets stored in our database for station/object SP5IZJ-2. If no packets are shown the sender has not sent any weather packets the latest 10 day(s).
| Time | Temp. | Humidity | Pressure | Rain* | Wind** | Luminosity | Snow |
|---|---|---|---|---|---|---|---|
| 1787643993 | 15° C | 83% | 1013.6 hPa | 0 mm | - | - | - |
| 1787643854 | 21.11° C | 69% | 1013.9 hPa | 0 mm | - | - | - |
| 1787643410 | 20° C | 73% | 1013.6 hPa | 0 mm | - | - | - |
| 1787643080 | 14.44° C | 83% | 1013.7 hPa | 0 mm | - | - | - |
| 1787642564 | 14.44° C | 82% | 1013.7 hPa | 0 mm | - | - | - |
| 1787642152 | 15° C | 80% | 1013.7 hPa | 0 mm | - | - | - |
| 1787641702 | 15.56° C | 78% | 1013.7 hPa | 0 mm | - | - | - |
| 1787640644 | 17.22° C | 80% | 1013.9 hPa | 0 mm | - | - | - |
| 1787640471 | 15° C | 83% | 1013.6 hPa | 0 mm | - | - | - |
| 1787639608 | 17.78° C | 86% | 1013.7 hPa | 0 mm | - | - | - |
| 1787638621 | 16.67° C | 91% | 1013.4 hPa | 0 mm | - | - | - |
| 1787638138 | 15.56° C | 93% | 1013.5 hPa | 0 mm | - | - | - |
| 1787637558 | 14.44° C | 93% | 1013.5 hPa | 0 mm | - | - | - |
| 1787637200 | 13.89° C | 93% | 1013.6 hPa | 0 mm | - | - | - |
| 1787636697 | 17.22° C | 82% | 1013.9 hPa | 0 mm | - | - | - |
| 1787636617 | 12.78° C | 94% | 1013.4 hPa | 0 mm | - | - | - |
| 1787636273 | 17.78° C | 86% | 1013.7 hPa | 0 mm | - | - | - |
| 1787636069 | 11.67° C | 94% | 1013.3 hPa | 0 mm | - | - | - |
| 1787635635 | 11.11° C | 93% | 1013.3 hPa | 0 mm | - | - | - |
| 1787635437 | 16.67° C | 91% | 1013.4 hPa | 0 mm | - | - | - |
| 1787635050 | 10° C | 93% | 1013.4 hPa | 0 mm | - | - | - |
| 1787634593 | 14.44° C | 93% | 1013.5 hPa | 0 mm | - | - | - |
| 1787634556 | 9.44° C | 93% | 1013.2 hPa | 0 mm | - | - | - |
| 1787634190 | 13.89° C | 93% | 1013.6 hPa | 0 mm | - | - | - |
| 1787633995 | 8.33° C | 92% | 1013 hPa | 0 mm | - | - | - |
* Rain latest hour (hover to see other rain measurements)
** Current wind speed in m/s (hover to see current wind gust speed)